sensor_id;sensor_type;location;lat;lon;timestamp;P1;durP1;ratioP1;P2;durP2;ratioP2
33858;SDS011;20156;47.486;12.074;2024-02-21T00:02:23;4.27;;;2.30;;
33858;SDS011;20156;47.486;12.074;2024-02-21T00:04:49;2.53;;;2.30;;
33858;SDS011;20156;47.486;12.074;2024-02-21T00:07:14;5.33;;;2.60;;
33858;SDS011;20156;47.486;12.074;2024-02-21T00:09:39;3.07;;;2.40;;
33858;SDS011;20156;47.486;12.074;2024-02-21T00:12:05;5.50;;;2.57;;
33858;SDS011;20156;47.486;12.074;2024-02-21T00:14:30;4.03;;;2.73;;
33858;SDS011;20156;47.486;12.074;2024-02-21T00:16:55;3.30;;;2.30;;
33858;SDS011;20156;47.486;12.074;2024-02-21T00:19:21;3.47;;;2.50;;
33858;SDS011;20156;47.486;12.074;2024-02-21T00:21:46;3.37;;;2.90;;
33858;SDS011;20156;47.486;12.074;2024-02-21T00:24:11;2.73;;;2.53;;
33858;SDS011;20156;47.486;12.074;2024-02-21T00:26:36;3.97;;;2.17;;
33858;SDS011;20156;47.486;12.074;2024-02-21T00:29:01;2.87;;;2.30;;
33858;SDS011;20156;47.486;12.074;2024-02-21T00:31:27;3.20;;;2.90;;
33858;SDS011;20156;47.486;12.074;2024-02-21T00:33:52;3.67;;;2.87;;
33858;SDS011;20156;47.486;12.074;2024-02-21T00:36:17;3.10;;;2.80;;
33858;SDS011;20156;47.486;12.074;2024-02-21T00:38:42;4.10;;;2.67;;
33858;SDS011;20156;47.486;12.074;2024-02-21T00:41:08;3.50;;;2.47;;
33858;SDS011;20156;47.486;12.074;2024-02-21T00:43:33;4.07;;;2.43;;
33858;SDS011;20156;47.486;12.074;2024-02-21T00:45:58;6.27;;;3.33;;
33858;SDS011;20156;47.486;12.074;2024-02-21T00:48:23;4.80;;;2.73;;
33858;SDS011;20156;47.486;12.074;2024-02-21T00:50:49;4.57;;;3.00;;
33858;SDS011;20156;47.486;12.074;2024-02-21T00:53:14;4.20;;;2.90;;
33858;SDS011;20156;47.486;12.074;2024-02-21T00:55:39;3.40;;;2.97;;
33858;SDS011;20156;47.486;12.074;2024-02-21T00:58:05;5.03;;;3.10;;
33858;SDS011;20156;47.486;12.074;2024-02-21T01:00:30;4.23;;;3.23;;
33858;SDS011;20156;47.486;12.074;2024-02-21T01:02:55;4.43;;;3.10;;
33858;SDS011;20156;47.486;12.074;2024-02-21T01:05:21;3.83;;;3.17;;
33858;SDS011;20156;47.486;12.074;2024-02-21T01:07:47;4.60;;;2.90;;
33858;SDS011;20156;47.486;12.074;2024-02-21T01:10:12;6.03;;;2.63;;
33858;SDS011;20156;47.486;12.074;2024-02-21T01:12:38;3.93;;;2.60;;
33858;SDS011;20156;47.486;12.074;2024-02-21T01:15:03;4.17;;;3.10;;
33858;SDS011;20156;47.486;12.074;2024-02-21T01:17:29;5.23;;;3.33;;
33858;SDS011;20156;47.486;12.074;2024-02-21T01:19:54;3.53;;;2.93;;
33858;SDS011;20156;47.486;12.074;2024-02-21T01:22:19;3.20;;;2.60;;
33858;SDS011;20156;47.486;12.074;2024-02-21T01:24:44;3.57;;;2.90;;
33858;SDS011;20156;47.486;12.074;2024-02-21T01:27:10;3.67;;;2.80;;
33858;SDS011;20156;47.486;12.074;2024-02-21T01:29:35;3.57;;;2.53;;
33858;SDS011;20156;47.486;12.074;2024-02-21T01:32:00;3.40;;;2.90;;
33858;SDS011;20156;47.486;12.074;2024-02-21T01:34:26;5.33;;;3.07;;
33858;SDS011;20156;47.486;12.074;2024-02-21T01:36:51;3.23;;;2.63;;
33858;SDS011;20156;47.486;12.074;2024-02-21T01:39:16;4.50;;;2.40;;
33858;SDS011;20156;47.486;12.074;2024-02-21T01:41:42;3.90;;;2.80;;
33858;SDS011;20156;47.486;12.074;2024-02-21T01:44:07;3.47;;;3.00;;
33858;SDS011;20156;47.486;12.074;2024-02-21T01:46:33;3.20;;;2.30;;
33858;SDS011;20156;47.486;12.074;2024-02-21T01:48:58;4.57;;;2.87;;
33858;SDS011;20156;47.486;12.074;2024-02-21T01:51:24;4.73;;;3.00;;
33858;SDS011;20156;47.486;12.074;2024-02-21T01:53:49;4.73;;;3.10;;
33858;SDS011;20156;47.486;12.074;2024-02-21T01:56:15;4.57;;;2.70;;
33858;SDS011;20156;47.486;12.074;2024-02-21T01:58:41;4.93;;;2.40;;
33858;SDS011;20156;47.486;12.074;2024-02-21T02:01:07;3.30;;;2.83;;
33858;SDS011;20156;47.486;12.074;2024-02-21T02:03:32;5.30;;;3.10;;
33858;SDS011;20156;47.486;12.074;2024-02-21T02:05:58;5.13;;;2.90;;
33858;SDS011;20156;47.486;12.074;2024-02-21T02:08:23;2.87;;;2.50;;
33858;SDS011;20156;47.486;12.074;2024-02-21T02:10:48;3.87;;;2.83;;
33858;SDS011;20156;47.486;12.074;2024-02-21T02:13:14;4.23;;;2.70;;
33858;SDS011;20156;47.486;12.074;2024-02-21T02:18:05;5.30;;;2.60;;
33858;SDS011;20156;47.486;12.074;2024-02-21T02:20:30;4.73;;;3.03;;
33858;SDS011;20156;47.486;12.074;2024-02-21T02:22:55;5.00;;;2.50;;
33858;SDS011;20156;47.486;12.074;2024-02-21T02:25:20;3.77;;;2.73;;
33858;SDS011;20156;47.486;12.074;2024-02-21T02:27:46;3.97;;;2.93;;
33858;SDS011;20156;47.486;12.074;2024-02-21T02:30:11;4.10;;;2.70;;
33858;SDS011;20156;47.486;12.074;2024-02-21T02:32:37;3.23;;;2.70;;
33858;SDS011;20156;47.486;12.074;2024-02-21T02:35:02;4.80;;;2.50;;
33858;SDS011;20156;47.486;12.074;2024-02-21T02:37:27;3.13;;;2.37;;
33858;SDS011;20156;47.486;12.074;2024-02-21T02:39:53;4.33;;;2.83;;
33858;SDS011;20156;47.486;12.074;2024-02-21T02:42:18;4.13;;;2.73;;
33858;SDS011;20156;47.486;12.074;2024-02-21T02:44:43;2.87;;;2.20;;
33858;SDS011;20156;47.486;12.074;2024-02-21T02:47:08;3.97;;;2.30;;
33858;SDS011;20156;47.486;12.074;2024-02-21T02:49:34;3.23;;;2.50;;
33858;SDS011;20156;47.486;12.074;2024-02-21T02:51:59;2.30;;;2.10;;
33858;SDS011;20156;47.486;12.074;2024-02-21T02:54:24;4.07;;;2.73;;
33858;SDS011;20156;47.486;12.074;2024-02-21T02:56:50;4.20;;;2.73;;
33858;SDS011;20156;47.486;12.074;2024-02-21T02:59:15;5.40;;;2.97;;
33858;SDS011;20156;47.486;12.074;2024-02-21T03:01:41;3.47;;;2.50;;
33858;SDS011;20156;47.486;12.074;2024-02-21T03:04:06;3.97;;;2.87;;
33858;SDS011;20156;47.486;12.074;2024-02-21T03:06:31;7.20;;;3.77;;
33858;SDS011;20156;47.486;12.074;2024-02-21T03:08:56;3.43;;;2.80;;
33858;SDS011;20156;47.486;12.074;2024-02-21T03:11:22;5.17;;;2.80;;
33858;SDS011;20156;47.486;12.074;2024-02-21T03:13:53;5.07;;;3.10;;
33858;SDS011;20156;47.486;12.074;2024-02-21T03:16:19;3.00;;;2.70;;
33858;SDS011;20156;47.486;12.074;2024-02-21T03:18:44;5.30;;;2.97;;
33858;SDS011;20156;47.486;12.074;2024-02-21T03:21:09;4.40;;;2.80;;
33858;SDS011;20156;47.486;12.074;2024-02-21T03:23:35;3.70;;;2.93;;
33858;SDS011;20156;47.486;12.074;2024-02-21T03:26:00;3.60;;;2.90;;
33858;SDS011;20156;47.486;12.074;2024-02-21T03:28:25;4.07;;;2.87;;
33858;SDS011;20156;47.486;12.074;2024-02-21T03:30:50;2.97;;;2.67;;
33858;SDS011;20156;47.486;12.074;2024-02-21T03:33:15;4.40;;;3.07;;
33858;SDS011;20156;47.486;12.074;2024-02-21T03:35:41;6.63;;;3.53;;
33858;SDS011;20156;47.486;12.074;2024-02-21T03:38:06;4.37;;;3.40;;
33858;SDS011;20156;47.486;12.074;2024-02-21T03:40:31;4.63;;;3.40;;
33858;SDS011;20156;47.486;12.074;2024-02-21T03:42:56;5.90;;;3.50;;
33858;SDS011;20156;47.486;12.074;2024-02-21T03:45:22;5.37;;;3.73;;
33858;SDS011;20156;47.486;12.074;2024-02-21T03:47:47;5.13;;;3.67;;
33858;SDS011;20156;47.486;12.074;2024-02-21T03:50:12;4.60;;;3.63;;
33858;SDS011;20156;47.486;12.074;2024-02-21T03:52:38;4.83;;;3.70;;
33858;SDS011;20156;47.486;12.074;2024-02-21T03:55:03;5.40;;;3.70;;
33858;SDS011;20156;47.486;12.074;2024-02-21T03:57:28;5.70;;;3.30;;
33858;SDS011;20156;47.486;12.074;2024-02-21T03:59:53;5.23;;;3.30;;
33858;SDS011;20156;47.486;12.074;2024-02-21T04:02:19;3.60;;;3.10;;
33858;SDS011;20156;47.486;12.074;2024-02-21T04:04:44;4.93;;;3.23;;
33858;SDS011;20156;47.486;12.074;2024-02-21T04:07:13;6.60;;;3.90;;
33858;SDS011;20156;47.486;12.074;2024-02-21T04:09:39;4.13;;;2.93;;
33858;SDS011;20156;47.486;12.074;2024-02-21T04:12:05;6.00;;;3.33;;
33858;SDS011;20156;47.486;12.074;2024-02-21T04:14:30;5.00;;;3.03;;
33858;SDS011;20156;47.486;12.074;2024-02-21T04:16:55;4.00;;;3.00;;
33858;SDS011;20156;47.486;12.074;2024-02-21T04:19:21;6.27;;;3.23;;
33858;SDS011;20156;47.486;12.074;2024-02-21T04:21:46;4.03;;;3.20;;
33858;SDS011;20156;47.486;12.074;2024-02-21T04:24:11;4.47;;;3.00;;
33858;SDS011;20156;47.486;12.074;2024-02-21T04:26:36;7.63;;;3.40;;
33858;SDS011;20156;47.486;12.074;2024-02-21T04:29:02;3.80;;;3.00;;
33858;SDS011;20156;47.486;12.074;2024-02-21T04:31:27;5.63;;;3.30;;
33858;SDS011;20156;47.486;12.074;2024-02-21T04:33:52;4.10;;;3.00;;
33858;SDS011;20156;47.486;12.074;2024-02-21T04:36:18;5.50;;;3.73;;
33858;SDS011;20156;47.486;12.074;2024-02-21T04:38:43;5.60;;;3.37;;
33858;SDS011;20156;47.486;12.074;2024-02-21T04:41:08;5.67;;;4.17;;
33858;SDS011;20156;47.486;12.074;2024-02-21T04:43:33;5.53;;;3.23;;
33858;SDS011;20156;47.486;12.074;2024-02-21T04:45:59;3.87;;;3.30;;
33858;SDS011;20156;47.486;12.074;2024-02-21T04:48:25;3.67;;;3.33;;
33858;SDS011;20156;47.486;12.074;2024-02-21T04:50:50;4.10;;;3.00;;
33858;SDS011;20156;47.486;12.074;2024-02-21T04:53:16;4.40;;;3.47;;
33858;SDS011;20156;47.486;12.074;2024-02-21T04:55:41;3.77;;;3.03;;
33858;SDS011;20156;47.486;12.074;2024-02-21T04:58:07;4.23;;;3.40;;
33858;SDS011;20156;47.486;12.074;2024-02-21T05:00:32;8.53;;;4.30;;
33858;SDS011;20156;47.486;12.074;2024-02-21T05:02:57;4.60;;;4.20;;
33858;SDS011;20156;47.486;12.074;2024-02-21T05:05:22;4.30;;;3.90;;
33858;SDS011;20156;47.486;12.074;2024-02-21T05:07:48;5.70;;;3.90;;
33858;SDS011;20156;47.486;12.074;2024-02-21T05:10:13;5.03;;;4.30;;
33858;SDS011;20156;47.486;12.074;2024-02-21T05:12:38;5.70;;;3.90;;
33858;SDS011;20156;47.486;12.074;2024-02-21T05:15:03;6.80;;;4.10;;
33858;SDS011;20156;47.486;12.074;2024-02-21T05:17:29;5.50;;;4.30;;
33858;SDS011;20156;47.486;12.074;2024-02-21T05:19:54;8.50;;;4.93;;
33858;SDS011;20156;47.486;12.074;2024-02-21T05:22:19;7.93;;;4.60;;
33858;SDS011;20156;47.486;12.074;2024-02-21T05:24:45;5.57;;;4.97;;
33858;SDS011;20156;47.486;12.074;2024-02-21T05:27:10;6.27;;;5.20;;
33858;SDS011;20156;47.486;12.074;2024-02-21T05:29:35;7.47;;;4.70;;
33858;SDS011;20156;47.486;12.074;2024-02-21T05:32:00;7.87;;;5.07;;
33858;SDS011;20156;47.486;12.074;2024-02-21T05:34:27;7.20;;;5.63;;
33858;SDS011;20156;47.486;12.074;2024-02-21T05:36:52;8.63;;;5.50;;
33858;SDS011;20156;47.486;12.074;2024-02-21T05:39:18;7.10;;;5.30;;
33858;SDS011;20156;47.486;12.074;2024-02-21T05:41:43;6.83;;;5.60;;
33858;SDS011;20156;47.486;12.074;2024-02-21T05:44:09;6.90;;;4.90;;
33858;SDS011;20156;47.486;12.074;2024-02-21T05:46:34;9.37;;;5.17;;
33858;SDS011;20156;47.486;12.074;2024-02-21T05:49:00;6.50;;;4.77;;
33858;SDS011;20156;47.486;12.074;2024-02-21T05:51:25;5.67;;;3.80;;
33858;SDS011;20156;47.486;12.074;2024-02-21T05:53:50;6.73;;;4.27;;
33858;SDS011;20156;47.486;12.074;2024-02-21T05:56:15;8.17;;;5.07;;
33858;SDS011;20156;47.486;12.074;2024-02-21T05:58:43;7.47;;;5.50;;
33858;SDS011;20156;47.486;12.074;2024-02-21T06:01:08;7.80;;;5.73;;
33858;SDS011;20156;47.486;12.074;2024-02-21T06:03:33;6.63;;;4.53;;
33858;SDS011;20156;47.486;12.074;2024-02-21T06:05:59;6.87;;;4.60;;
33858;SDS011;20156;47.486;12.074;2024-02-21T06:08:24;6.67;;;5.10;;
33858;SDS011;20156;47.486;12.074;2024-02-21T06:10:49;7.40;;;5.10;;
33858;SDS011;20156;47.486;12.074;2024-02-21T06:13:19;5.90;;;4.33;;
33858;SDS011;20156;47.486;12.074;2024-02-21T06:15:46;5.00;;;4.33;;
33858;SDS011;20156;47.486;12.074;2024-02-21T06:18:11;6.07;;;4.60;;
33858;SDS011;20156;47.486;12.074;2024-02-21T06:20:36;6.30;;;4.93;;
33858;SDS011;20156;47.486;12.074;2024-02-21T06:23:04;5.60;;;5.00;;
33858;SDS011;20156;47.486;12.074;2024-02-21T06:25:29;6.07;;;4.70;;
33858;SDS011;20156;47.486;12.074;2024-02-21T06:27:54;7.17;;;4.93;;
33858;SDS011;20156;47.486;12.074;2024-02-21T06:30:20;5.33;;;4.10;;
33858;SDS011;20156;47.486;12.074;2024-02-21T06:32:45;5.97;;;4.00;;
33858;SDS011;20156;47.486;12.074;2024-02-21T06:35:10;5.30;;;4.00;;
33858;SDS011;20156;47.486;12.074;2024-02-21T06:37:36;5.73;;;4.30;;
33858;SDS011;20156;47.486;12.074;2024-02-21T06:40:02;4.67;;;3.80;;
33858;SDS011;20156;47.486;12.074;2024-02-21T06:42:29;7.30;;;4.33;;
33858;SDS011;20156;47.486;12.074;2024-02-21T06:44:54;5.10;;;4.40;;
33858;SDS011;20156;47.486;12.074;2024-02-21T06:47:21;7.10;;;6.40;;
33858;SDS011;20156;47.486;12.074;2024-02-21T06:49:49;11.33;;;7.63;;
33858;SDS011;20156;47.486;12.074;2024-02-21T06:52:18;8.20;;;6.90;;
33858;SDS011;20156;47.486;12.074;2024-02-21T06:54:47;6.20;;;4.60;;
33858;SDS011;20156;47.486;12.074;2024-02-21T06:57:13;5.13;;;4.40;;
33858;SDS011;20156;47.486;12.074;2024-02-21T06:59:39;6.27;;;5.53;;
33858;SDS011;20156;47.486;12.074;2024-02-21T07:02:05;7.37;;;5.13;;
33858;SDS011;20156;47.486;12.074;2024-02-21T07:04:30;8.33;;;5.43;;
33858;SDS011;20156;47.486;12.074;2024-02-21T07:06:55;7.53;;;6.10;;
33858;SDS011;20156;47.486;12.074;2024-02-21T07:09:20;6.63;;;4.90;;
33858;SDS011;20156;47.486;12.074;2024-02-21T07:11:46;7.57;;;6.30;;
33858;SDS011;20156;47.486;12.074;2024-02-21T07:14:11;8.03;;;6.07;;
33858;SDS011;20156;47.486;12.074;2024-02-21T07:16:36;9.57;;;6.93;;
33858;SDS011;20156;47.486;12.074;2024-02-21T07:19:02;11.33;;;7.07;;
33858;SDS011;20156;47.486;12.074;2024-02-21T07:21:27;9.97;;;7.87;;
33858;SDS011;20156;47.486;12.074;2024-02-21T07:23:52;9.13;;;7.70;;
33858;SDS011;20156;47.486;12.074;2024-02-21T07:26:18;11.93;;;8.17;;
33858;SDS011;20156;47.486;12.074;2024-02-21T07:28:43;8.77;;;6.97;;
33858;SDS011;20156;47.486;12.074;2024-02-21T07:31:08;8.97;;;6.67;;
33858;SDS011;20156;47.486;12.074;2024-02-21T07:33:33;8.23;;;6.73;;
33858;SDS011;20156;47.486;12.074;2024-02-21T07:36:00;9.47;;;7.27;;
33858;SDS011;20156;47.486;12.074;2024-02-21T07:38:25;9.63;;;6.60;;
33858;SDS011;20156;47.486;12.074;2024-02-21T07:40:51;12.77;;;8.00;;
33858;SDS011;20156;47.486;12.074;2024-02-21T07:43:16;21.80;;;14.27;;
33858;SDS011;20156;47.486;12.074;2024-02-21T07:45:41;21.30;;;13.90;;
33858;SDS011;20156;47.486;12.074;2024-02-21T07:48:06;29.83;;;20.03;;
33858;SDS011;20156;47.486;12.074;2024-02-21T07:50:32;23.20;;;16.77;;
33858;SDS011;20156;47.486;12.074;2024-02-21T07:52:57;15.23;;;11.10;;
33858;SDS011;20156;47.486;12.074;2024-02-21T07:55:22;15.60;;;12.60;;
33858;SDS011;20156;47.486;12.074;2024-02-21T07:57:48;21.23;;;15.63;;
33858;SDS011;20156;47.486;12.074;2024-02-21T08:00:14;15.83;;;12.03;;
33858;SDS011;20156;47.486;12.074;2024-02-21T08:02:44;10.43;;;8.73;;
33858;SDS011;20156;47.486;12.074;2024-02-21T08:05:10;11.83;;;7.40;;
33858;SDS011;20156;47.486;12.074;2024-02-21T08:07:37;11.87;;;6.90;;
33858;SDS011;20156;47.486;12.074;2024-02-21T08:10:02;8.10;;;6.77;;
33858;SDS011;20156;47.486;12.074;2024-02-21T08:12:28;7.47;;;6.40;;
33858;SDS011;20156;47.486;12.074;2024-02-21T08:14:53;7.80;;;6.30;;
33858;SDS011;20156;47.486;12.074;2024-02-21T08:17:18;9.57;;;7.00;;
33858;SDS011;20156;47.486;12.074;2024-02-21T08:19:43;9.13;;;6.47;;
33858;SDS011;20156;47.486;12.074;2024-02-21T08:22:08;8.60;;;6.33;;
33858;SDS011;20156;47.486;12.074;2024-02-21T08:24:34;7.77;;;5.53;;
33858;SDS011;20156;47.486;12.074;2024-02-21T08:26:59;7.73;;;5.83;;
33858;SDS011;20156;47.486;12.074;2024-02-21T08:29:25;7.17;;;5.40;;
33858;SDS011;20156;47.486;12.074;2024-02-21T08:31:50;8.33;;;5.63;;
33858;SDS011;20156;47.486;12.074;2024-02-21T08:34:15;10.50;;;5.27;;
33858;SDS011;20156;47.486;12.074;2024-02-21T08:36:40;6.93;;;5.63;;
33858;SDS011;20156;47.486;12.074;2024-02-21T08:39:06;8.30;;;6.03;;
33858;SDS011;20156;47.486;12.074;2024-02-21T08:41:32;7.57;;;6.07;;
33858;SDS011;20156;47.486;12.074;2024-02-21T08:43:57;7.93;;;5.67;;
33858;SDS011;20156;47.486;12.074;2024-02-21T08:46:23;8.73;;;5.27;;
33858;SDS011;20156;47.486;12.074;2024-02-21T08:48:51;12.30;;;6.37;;
33858;SDS011;20156;47.486;12.074;2024-02-21T08:51:17;9.67;;;5.80;;
33858;SDS011;20156;47.486;12.074;2024-02-21T08:53:42;7.80;;;5.00;;
33858;SDS011;20156;47.486;12.074;2024-02-21T08:56:07;7.57;;;4.83;;
33858;SDS011;20156;47.486;12.074;2024-02-21T08:58:33;7.80;;;4.70;;
33858;SDS011;20156;47.486;12.074;2024-02-21T09:00:58;7.47;;;5.53;;
33858;SDS011;20156;47.486;12.074;2024-02-21T09:03:23;9.73;;;5.60;;
33858;SDS011;20156;47.486;12.074;2024-02-21T09:05:49;9.23;;;5.50;;
33858;SDS011;20156;47.486;12.074;2024-02-21T09:08:14;8.13;;;5.03;;
33858;SDS011;20156;47.486;12.074;2024-02-21T09:10:39;10.20;;;5.90;;
33858;SDS011;20156;47.486;12.074;2024-02-21T09:13:05;10.43;;;6.00;;
33858;SDS011;20156;47.486;12.074;2024-02-21T09:15:31;6.57;;;4.90;;
33858;SDS011;20156;47.486;12.074;2024-02-21T09:17:56;6.87;;;4.60;;
33858;SDS011;20156;47.486;12.074;2024-02-21T09:20:22;5.67;;;3.67;;
33858;SDS011;20156;47.486;12.074;2024-02-21T09:22:47;5.57;;;3.90;;
33858;SDS011;20156;47.486;12.074;2024-02-21T09:25:12;5.20;;;3.60;;
33858;SDS011;20156;47.486;12.074;2024-02-21T09:27:38;3.47;;;3.17;;
33858;SDS011;20156;47.486;12.074;2024-02-21T09:30:04;3.17;;;2.87;;
33858;SDS011;20156;47.486;12.074;2024-02-21T09:32:30;4.50;;;2.37;;
33858;SDS011;20156;47.486;12.074;2024-02-21T09:34:55;4.07;;;2.37;;
33858;SDS011;20156;47.486;12.074;2024-02-21T09:37:20;4.33;;;2.70;;
33858;SDS011;20156;47.486;12.074;2024-02-21T09:39:45;3.10;;;2.57;;
33858;SDS011;20156;47.486;12.074;2024-02-21T09:42:12;3.23;;;2.10;;
33858;SDS011;20156;47.486;12.074;2024-02-21T09:44:39;3.77;;;2.37;;
33858;SDS011;20156;47.486;12.074;2024-02-21T09:47:12;2.87;;;2.10;;
33858;SDS011;20156;47.486;12.074;2024-02-21T09:49:42;2.87;;;2.30;;
33858;SDS011;20156;47.486;12.074;2024-02-21T09:52:07;3.53;;;2.10;;
33858;SDS011;20156;47.486;12.074;2024-02-21T09:54:34;2.70;;;2.40;;
33858;SDS011;20156;47.486;12.074;2024-02-21T09:56:59;2.80;;;2.47;;
33858;SDS011;20156;47.486;12.074;2024-02-21T09:59:25;3.30;;;2.80;;
33858;SDS011;20156;47.486;12.074;2024-02-21T10:01:52;3.13;;;2.83;;
33858;SDS011;20156;47.486;12.074;2024-02-21T10:04:17;4.07;;;2.90;;
33858;SDS011;20156;47.486;12.074;2024-02-21T10:06:43;3.33;;;2.37;;
33858;SDS011;20156;47.486;12.074;2024-02-21T10:09:09;4.77;;;2.30;;
33858;SDS011;20156;47.486;12.074;2024-02-21T10:11:44;2.93;;;1.83;;
33858;SDS011;20156;47.486;12.074;2024-02-21T10:14:09;1.97;;;1.77;;
33858;SDS011;20156;47.486;12.074;2024-02-21T10:16:35;1.80;;;1.70;;
33858;SDS011;20156;47.486;12.074;2024-02-21T10:19:02;1.93;;;1.73;;
33858;SDS011;20156;47.486;12.074;2024-02-21T10:21:28;1.87;;;1.60;;
33858;SDS011;20156;47.486;12.074;2024-02-21T10:23:54;1.90;;;1.80;;
33858;SDS011;20156;47.486;12.074;2024-02-21T10:26:20;1.92;;;1.80;;
33858;SDS011;20156;47.486;12.074;2024-02-21T10:28:45;6.43;;;2.30;;
33858;SDS011;20156;47.486;12.074;2024-02-21T10:31:21;3.67;;;1.80;;
33858;SDS011;20156;47.486;12.074;2024-02-21T10:33:53;2.10;;;1.70;;
33858;SDS011;20156;47.486;12.074;2024-02-21T10:36:18;1.73;;;1.60;;
33858;SDS011;20156;47.486;12.074;2024-02-21T10:38:44;1.97;;;1.70;;
33858;SDS011;20156;47.486;12.074;2024-02-21T10:41:09;1.77;;;1.40;;
33858;SDS011;20156;47.486;12.074;2024-02-21T10:43:39;1.97;;;1.70;;
33858;SDS011;20156;47.486;12.074;2024-02-21T10:46:08;1.90;;;1.70;;
33858;SDS011;20156;47.486;12.074;2024-02-21T10:48:46;1.97;;;1.77;;
33858;SDS011;20156;47.486;12.074;2024-02-21T10:51:19;3.07;;;1.80;;
33858;SDS011;20156;47.486;12.074;2024-02-21T10:53:47;1.70;;;1.60;;
33858;SDS011;20156;47.486;12.074;2024-02-21T10:58:41;3.20;;;1.70;;
33858;SDS011;20156;47.486;12.074;2024-02-21T11:01:06;1.90;;;1.38;;
33858;SDS011;20156;47.486;12.074;2024-02-21T11:03:32;1.55;;;1.45;;
33858;SDS011;20156;47.486;12.074;2024-02-21T11:05:58;2.08;;;1.20;;
33858;SDS011;20156;47.486;12.074;2024-02-21T11:08:24;2.58;;;0.98;;
33858;SDS011;20156;47.486;12.074;2024-02-21T11:10:56;1.25;;;1.15;;
33858;SDS011;20156;47.486;12.074;2024-02-21T11:13:29;1.35;;;1.20;;
33858;SDS011;20156;47.486;12.074;2024-02-21T11:16:05;0.82;;;0.75;;
33858;SDS011;20156;47.486;12.074;2024-02-21T11:18:30;0.90;;;0.90;;
33858;SDS011;20156;47.486;12.074;2024-02-21T11:20:55;1.15;;;1.05;;
33858;SDS011;20156;47.486;12.074;2024-02-21T11:23:25;1.25;;;1.15;;
33858;SDS011;20156;47.486;12.074;2024-02-21T11:25:50;1.25;;;1.15;;
33858;SDS011;20156;47.486;12.074;2024-02-21T11:28:15;1.50;;;1.30;;
33858;SDS011;20156;47.486;12.074;2024-02-21T11:30:50;1.13;;;0.90;;
33858;SDS011;20156;47.486;12.074;2024-02-21T11:33:16;19.60;;;13.77;;
33858;SDS011;20156;47.486;12.074;2024-02-21T11:35:41;5.00;;;2.40;;
33858;SDS011;20156;47.486;12.074;2024-02-21T11:38:07;1.73;;;1.60;;
33858;SDS011;20156;47.486;12.074;2024-02-21T11:40:33;2.47;;;1.55;;
33858;SDS011;20156;47.486;12.074;2024-02-21T11:42:59;1.25;;;1.00;;
33858;SDS011;20156;47.486;12.074;2024-02-21T11:45:25;2.08;;;1.30;;
33858;SDS011;20156;47.486;12.074;2024-02-21T11:47:51;1.30;;;1.13;;
33858;SDS011;20156;47.486;12.074;2024-02-21T11:50:16;3.00;;;1.27;;
33858;SDS011;20156;47.486;12.074;2024-02-21T11:52:41;1.40;;;1.30;;
33858;SDS011;20156;47.486;12.074;2024-02-21T11:55:07;1.33;;;0.98;;
33858;SDS011;20156;47.486;12.074;2024-02-21T11:57:33;2.65;;;1.42;;
33858;SDS011;20156;47.486;12.074;2024-02-21T12:00:10;1.50;;;1.30;;
33858;SDS011;20156;47.486;12.074;2024-02-21T12:02:35;2.25;;;1.60;;
33858;SDS011;20156;47.486;12.074;2024-02-21T12:05:00;1.83;;;1.40;;
33858;SDS011;20156;47.486;12.074;2024-02-21T12:07:26;2.90;;;1.70;;
33858;SDS011;20156;47.486;12.074;2024-02-21T12:09:53;2.50;;;1.38;;
33858;SDS011;20156;47.486;12.074;2024-02-21T12:12:21;2.20;;;1.50;;
33858;SDS011;20156;47.486;12.074;2024-02-21T12:14:47;2.15;;;1.48;;
33858;SDS011;20156;47.486;12.074;2024-02-21T12:17:18;2.88;;;1.20;;
33858;SDS011;20156;47.486;12.074;2024-02-21T12:19:44;1.65;;;1.48;;
33858;SDS011;20156;47.486;12.074;2024-02-21T12:22:15;2.13;;;1.33;;
33858;SDS011;20156;47.486;12.074;2024-02-21T12:24:41;1.40;;;1.30;;
33858;SDS011;20156;47.486;12.074;2024-02-21T12:27:12;2.25;;;1.63;;
33858;SDS011;20156;47.486;12.074;2024-02-21T12:29:37;2.60;;;1.50;;
33858;SDS011;20156;47.486;12.074;2024-02-21T12:32:03;1.40;;;1.27;;
33858;SDS011;20156;47.486;12.074;2024-02-21T12:34:29;1.25;;;1.15;;
33858;SDS011;20156;47.486;12.074;2024-02-21T12:36:57;1.40;;;1.30;;
33858;SDS011;20156;47.486;12.074;2024-02-21T12:39:22;1.30;;;1.20;;
33858;SDS011;20156;47.486;12.074;2024-02-21T12:41:47;1.42;;;1.33;;
33858;SDS011;20156;47.486;12.074;2024-02-21T12:44:13;2.05;;;1.30;;
33858;SDS011;20156;47.486;12.074;2024-02-21T12:46:39;1.60;;;1.30;;
33858;SDS011;20156;47.486;12.074;2024-02-21T12:49:07;2.13;;;1.20;;
33858;SDS011;20156;47.486;12.074;2024-02-21T12:51:33;1.88;;;1.30;;
33858;SDS011;20156;47.486;12.074;2024-02-21T12:53:58;2.60;;;1.60;;
33858;SDS011;20156;47.486;12.074;2024-02-21T12:56:24;1.30;;;1.15;;
33858;SDS011;20156;47.486;12.074;2024-02-21T12:58:51;1.63;;;1.25;;
33858;SDS011;20156;47.486;12.074;2024-02-21T13:01:16;2.55;;;1.00;;
33858;SDS011;20156;47.486;12.074;2024-02-21T13:03:41;2.10;;;1.20;;
33858;SDS011;20156;47.486;12.074;2024-02-21T13:06:07;1.80;;;1.27;;
33858;SDS011;20156;47.486;12.074;2024-02-21T13:08:36;1.33;;;1.23;;
33858;SDS011;20156;47.486;12.074;2024-02-21T13:11:01;1.33;;;1.20;;
33858;SDS011;20156;47.486;12.074;2024-02-21T13:13:26;1.98;;;1.30;;
33858;SDS011;20156;47.486;12.074;2024-02-21T13:15:51;1.25;;;1.10;;
33858;SDS011;20156;47.486;12.074;2024-02-21T13:18:17;2.28;;;0.88;;
33858;SDS011;20156;47.486;12.074;2024-02-21T13:20:42;1.20;;;1.10;;
33858;SDS011;20156;47.486;12.074;2024-02-21T13:23:07;2.05;;;1.23;;
33858;SDS011;20156;47.486;12.074;2024-02-21T13:25:32;1.42;;;1.08;;
33858;SDS011;20156;47.486;12.074;2024-02-21T13:27:58;2.20;;;1.00;;
33858;SDS011;20156;47.486;12.074;2024-02-21T13:30:23;1.10;;;1.10;;
33858;SDS011;20156;47.486;12.074;2024-02-21T13:32:50;1.38;;;1.00;;
33858;SDS011;20156;47.486;12.074;2024-02-21T13:35:15;3.50;;;1.00;;
33858;SDS011;20156;47.486;12.074;2024-02-21T13:37:40;2.65;;;1.48;;
33858;SDS011;20156;47.486;12.074;2024-02-21T13:40:06;1.50;;;0.90;;
33858;SDS011;20156;47.486;12.074;2024-02-21T13:42:32;0.82;;;0.80;;
33858;SDS011;20156;47.486;12.074;2024-02-21T13:44:57;0.82;;;0.60;;
33858;SDS011;20156;47.486;12.074;2024-02-21T13:47:23;0.77;;;0.77;;
33858;SDS011;20156;47.486;12.074;2024-02-21T13:49:48;1.15;;;0.70;;
33858;SDS011;20156;47.486;12.074;2024-02-21T13:52:13;1.48;;;1.02;;
33858;SDS011;20156;47.486;12.074;2024-02-21T13:54:39;0.75;;;0.75;;
33858;SDS011;20156;47.486;12.074;2024-02-21T13:57:04;0.70;;;0.70;;
33858;SDS011;20156;47.486;12.074;2024-02-21T13:59:30;0.70;;;0.70;;
33858;SDS011;20156;47.486;12.074;2024-02-21T14:01:55;1.13;;;0.70;;
33858;SDS011;20156;47.486;12.074;2024-02-21T14:04:21;1.83;;;1.00;;
33858;SDS011;20156;47.486;12.074;2024-02-21T14:06:46;1.25;;;0.90;;
33858;SDS011;20156;47.486;12.074;2024-02-21T14:09:12;1.60;;;1.10;;
33858;SDS011;20156;47.486;12.074;2024-02-21T14:11:37;1.40;;;1.20;;
33858;SDS011;20156;47.486;12.074;2024-02-21T14:14:06;1.30;;;1.10;;
33858;SDS011;20156;47.486;12.074;2024-02-21T14:16:32;3.00;;;1.10;;
33858;SDS011;20156;47.486;12.074;2024-02-21T14:18:57;1.27;;;1.00;;
33858;SDS011;20156;47.486;12.074;2024-02-21T14:21:22;4.28;;;1.00;;
33858;SDS011;20156;47.486;12.074;2024-02-21T14:23:48;1.77;;;0.80;;
33858;SDS011;20156;47.486;12.074;2024-02-21T14:26:13;2.80;;;1.10;;
33858;SDS011;20156;47.486;12.074;2024-02-21T14:28:39;2.47;;;0.95;;
33858;SDS011;20156;47.486;12.074;2024-02-21T14:31:05;0.95;;;0.65;;